Terminal Aerodrome Forecast
Issued by NWS

Home | Current Version | Previous Version | Text Only | Print | Product List | Glossary Off
Versions: 1 2 3 4 5 6 7 8 9 10 11 12 13

000
FTUS43 KABR 071700
TAFATY
TAF
KATY 071737Z 0718/0818 27015KT P6SM SCT040 SCT080
     FM071930 31014G20KT P6SM VCTS SCT040CB BKN080
     FM080100 33014KT P6SM SCT050 SCT080
     FM080400 32007KT P6SM SKC
     FM081500 32016G22KT P6SM SCT030=

USA.gov is the U.S. government's official web portal to all federal, state and local government web resources and services.